Hillsborough, North Carolina
Current Conditions -  °F | °C
As of 2:56 PM on Thursday 23 Oct 2014 (Local Time) from KIGX Reporting Station
Clear Clear  
Wind Chill: 68°   Ceiling: Unl
Heat Index: 68°   Visibility: 10mi
Dew Point: 44°   Wind: 8mph
Humidity: 42%   Direction: 280°W
Pressure: 29.94"   Gusts: 20mph
Location:  36.08°N, 79.1°W
Report Text: KIGX 231856Z AUTO 28007G17KT 10SM CLR 20/07 A2994 RMK AO2 SLP134 T02000067
Loading
Personal Weather Stations






























Interactive Weather Map
Tropical Storm Tracking
New forecast layout! Learn more

10-Day Weather Forecast

Advertisements
Track Severe Weather on mobile